Time;durP1;ratioP1;P1;durP2;ratioP2;P2;SDS_P1;SDS_P2;PMS_P1;PMS_P2;Temp;Humidity;BMP_temperature;BMP_pressure;BME280_temperature;BME280_humidity;BME280_pressure;Samples;Min_cycle;Max_cycle;Signal;HPM_P1;HPM_P2
2020/12/04 00:01:00;;;;;;;;;49.33;39.00;;;;;2.28;70.77;102563.78;4359093;32;8907;-76
2020/12/04 00:03:55;;;;;;;;;43.00;39.33;;;;;2.28;70.89;102564.63;4354187;33;8937;-75
2020/12/04 00:06:40;;;;;;;;;48.67;42.33;;;;;2.29;70.77;102560.84;4360391;32;8908;-76
2020/12/04 00:09:36;;;;;;;;;45.67;42.00;;;;;2.25;70.78;102553.34;4358513;32;8941;-75
2020/12/04 00:12:32;;;;;;;;;47.00;44.67;;;;;2.32;70.76;102565.03;4360997;32;9041;-76
2020/12/04 00:15:00;;;;;;;;;43.33;41.33;;;;;2.39;70.54;102561.13;4374932;32;8959;-75
2020/12/04 00:17:56;;;;;;;;;39.33;37.67;;;;;2.47;70.32;102563.53;4363598;32;8907;-76
2020/12/04 00:20:52;;;;;;;;;37.33;36.33;;;;;2.35;70.68;102573.56;4373965;32;8911;-75
2020/12/04 00:23:48;;;;;;;;;41.33;41.33;;;;;2.36;70.67;102572.50;4371866;32;8937;-75
2020/12/04 00:26:43;;;;;;;;;39.33;34.67;;;;;2.38;70.49;102569.56;4374039;32;8953;-76
2020/12/04 00:29:40;;;;;;;;;37.33;35.33;;;;;2.43;70.30;102573.25;4370920;32;8990;-76
2020/12/04 00:32:08;;;;;;;;;41.00;34.67;;;;;2.40;70.32;102576.47;4360559;32;8970;-76
2020/12/04 00:34:58;;;;;;;;;39.00;36.00;;;;;2.13;70.86;102562.28;4374083;32;8930;-76
2020/12/04 00:37:39;;;;;;;;;44.00;39.33;;;;;2.46;70.24;102564.63;4351950;32;8873;-76
2020/12/04 00:40:08;;;;;;;;;38.33;37.00;;;;;2.55;70.00;102565.13;4368560;32;8983;-76
2020/12/04 00:43:03;;;;;;;;;31.33;29.33;;;;;2.30;70.64;102568.00;4367978;32;8887;-77
2020/12/04 00:45:59;;;;;;;;;44.67;38.67;;;;;2.14;71.23;102565.84;4363696;32;8969;-77
2020/12/04 00:48:54;;;;;;;;;38.00;36.00;;;;;2.46;70.47;102566.50;4373341;32;8930;-77
2020/12/04 00:51:52;;;;;;;;;34.00;31.33;;;;;2.55;70.21;102558.81;4373990;32;8915;-77
2020/12/04 00:54:49;;;;;;;;;32.33;29.67;;;;;2.46;70.58;102569.25;4354210;32;8942;-77
2020/12/04 00:57:44;;;;;;;;;38.67;35.33;;;;;2.30;70.96;102561.66;4361541;32;8893;-77
2020/12/04 01:00:40;;;;;;;;;32.67;30.33;;;;;2.20;71.57;102556.75;4358290;33;9043;-77
2020/12/04 01:03:36;;;;;;;;;42.00;39.33;;;;;2.42;71.00;102557.09;4359008;32;8945;-76
2020/12/04 01:06:31;;;;;;;;;26.67;26.67;;;;;2.34;71.21;102551.97;4348516;33;8909;-77
2020/12/04 01:09:28;;;;;;;;;31.67;28.67;;;;;2.38;71.31;102556.75;4359356;32;8918;-77
2020/12/04 01:12:23;;;;;;;;;31.33;30.00;;;;;2.53;70.67;102552.75;4348413;33;8906;-76
2020/12/04 01:15:20;;;;;;;;;36.00;35.33;;;;;2.38;71.29;102554.00;4362491;32;8903;-76
2020/12/04 01:18:03;;;;;;;;;35.67;31.67;;;;;2.31;71.76;102549.69;4359392;32;8900;-76
2020/12/04 01:20:54;;;;;;;;;35.33;34.33;;;;;2.29;71.61;102549.91;4360630;32;9047;-77
2020/12/04 01:23:51;;;;;;;;;34.67;33.00;;;;;2.34;71.45;102530.94;4358523;32;8909;-76
2020/12/04 01:26:47;;;;;;;;;37.33;33.00;;;;;2.47;71.29;102543.59;4358528;32;9036;-77
2020/12/04 01:29:43;;;;;;;;;32.00;30.00;;;;;2.26;71.58;102542.19;4370208;32;8895;-76
2020/12/04 01:32:38;;;;;;;;;48.33;43.00;;;;;2.28;71.84;102550.97;4361371;32;8911;-77
2020/12/04 01:35:06;;;;;;;;;27.33;27.33;;;;;2.41;71.52;102553.53;4373676;32;8937;-77
2020/12/04 01:38:01;;;;;;;;;37.33;28.67;;;;;2.29;71.98;102557.28;4363266;32;8908;-77
2020/12/04 01:41:01;;;;;;;;;25.00;25.00;;;;;2.41;71.79;102542.63;4373416;32;8908;-77
2020/12/04 01:43:43;;;;;;;;;27.00;26.33;;;;;2.46;71.09;102540.03;4374276;32;8920;-77
2020/12/04 01:46:11;;;;;;;;;25.67;25.67;;;;;2.53;71.05;102541.81;4370894;32;8900;-77
2020/12/04 01:49:08;;;;;;;;;31.33;31.33;;;;;2.46;71.42;102545.50;4364387;32;9591;-77
2020/12/04 01:51:38;;;;;;;;;28.00;26.67;;;;;2.57;71.05;102541.13;4373687;32;8901;-77
2020/12/04 01:54:34;;;;;;;;;26.67;26.33;;;;;2.61;71.02;102541.50;4362444;32;12355;-77
2020/12/04 01:57:02;;;;;;;;;36.00;29.33;;;;;2.61;71.07;102538.78;4360630;32;8906;-77
2020/12/04 01:59:57;;;;;;;;;25.00;20.33;;;;;2.59;71.24;102533.53;4362878;32;8891;-77
2020/12/04 02:02:53;;;;;;;;;66.67;50.67;;;;;2.62;70.79;102534.97;4362306;32;9671;-77
2020/12/04 02:05:57;;;;;;;;;59.33;46.33;;;;;2.34;71.92;102533.69;4372356;32;8996;-77
2020/12/04 02:09:04;;;;;;;;;43.00;42.67;;;;;2.53;71.48;102533.62;4372568;32;8927;-77
2020/12/04 02:12:04;;;;;;;;;42.33;37.33;;;;;2.50;71.75;102534.94;4372792;32;8903;-77
2020/12/04 02:14:59;;;;;;;;;23.67;23.67;;;;;2.58;71.48;102534.59;4360878;32;8899;-76
2020/12/04 02:17:56;;;;;;;;;30.00;29.33;;;;;2.71;70.90;102541.78;4358450;32;8988;-76
2020/12/04 02:21:01;;;;;;;;;24.33;24.33;;;;;2.49;71.45;102536.81;4358034;32;8943;-76
2020/12/04 02:23:58;;;;;;;;;25.00;23.00;;;;;2.62;71.12;102538.53;4359025;33;8893;-76
2020/12/04 02:26:56;;;;;;;;;38.00;26.00;;;;;2.30;72.35;102535.22;4356701;32;8929;-77
2020/12/04 02:29:40;;;;;;;;;23.33;23.33;;;;;2.62;71.42;102524.06;4358297;32;8892;-76
2020/12/04 02:32:37;;;;;;;;;35.33;33.67;;;;;2.63;71.08;102525.72;4352740;32;8949;-76
2020/12/04 02:35:33;;;;;;;;;29.33;27.67;;;;;2.58;71.45;102522.84;4348151;32;8959;-76
2020/12/04 02:38:30;;;;;;;;;31.33;29.33;;;;;2.67;71.35;102530.47;4368311;32;9068;-76
2020/12/04 02:41:26;;;;;;;;;26.00;26.00;;;;;2.61;71.31;102525.97;4361965;32;8989;-76
2020/12/04 02:43:54;;;;;;;;;27.33;25.00;;;;;2.71;71.48;102525.37;4369397;32;8878;-76
2020/12/04 02:46:50;;;;;;;;;33.00;33.00;;;;;2.41;71.96;102519.94;4372077;32;8962;-77
2020/12/04 02:49:31;;;;;;;;;26.33;23.67;;;;;2.60;71.66;102523.44;4362806;32;8968;-76
2020/12/04 02:52:00;;;;;;;;;36.67;34.67;;;;;2.51;71.82;102521.03;4376148;32;9033;-76
2020/12/04 02:54:55;;;;;;;;;35.33;32.00;;;;;2.58;71.91;102520.09;4375840;32;8919;-77
2020/12/04 02:57:51;;;;;;;;;28.67;24.67;;;;;2.49;72.15;102516.88;4376010;32;8927;-77
2020/12/04 03:00:47;;;;;;;;;31.33;29.67;;;;;2.68;71.51;102520.38;4375113;32;8911;-77
2020/12/04 03:03:14;;;;;;;;;35.00;29.67;;;;;2.32;72.51;102524.06;4358290;32;8906;-77
2020/12/04 03:06:10;;;;;;;;;26.33;26.33;;;;;2.56;71.91;102511.31;4360091;32;8925;-77
2020/12/04 03:08:49;;;;;;;;;36.00;31.33;;;;;2.69;71.50;102511.13;4359815;32;8897;-77
2020/12/04 03:11:31;;;;;;;;;17.33;16.67;;;;;2.69;71.53;102509.22;4365717;32;8912;-77
2020/12/04 03:14:26;;;;;;;;;31.67;31.00;;;;;2.63;71.32;102507.41;4365436;32;8966;-76
2020/12/04 03:17:23;;;;;;;;;31.33;29.67;;;;;2.22;73.20;102510.94;4364706;32;8911;-76
2020/12/04 03:19:51;;;;;;;;;33.00;29.67;;;;;2.64;72.03;102509.09;4361543;32;8910;-76
2020/12/04 03:22:47;;;;;;;;;30.00;28.67;;;;;2.75;71.66;102507.44;4355473;32;8984;-76
2020/12/04 03:25:42;;;;;;;;;33.00;32.33;;;;;2.82;70.86;102513.63;4374933;32;8892;-77
2020/12/04 03:28:38;;;;;;;;;39.00;37.00;;;;;2.85;71.14;102521.37;4374374;32;8880;-76
2020/12/04 03:31:33;;;;;;;;;41.67;32.67;;;;;2.35;72.63;102513.50;4363196;32;8938;-76
2020/12/04 03:34:01;;;;;;;;;32.00;32.00;;;;;2.59;72.00;102510.84;4363926;32;8993;-76
2020/12/04 03:36:57;;;;;;;;;26.00;26.00;;;;;2.74;71.28;102505.78;4361024;32;8941;-76
2020/12/04 03:39:52;;;;;;;;;33.00;31.67;;;;;2.59;71.43;102516.31;4374634;32;9580;-76
2020/12/04 03:42:48;;;;;;;;;23.33;23.33;;;;;2.23;73.06;102518.09;4374580;32;8938;-76
2020/12/04 03:45:43;;;;;;;;;30.33;28.33;;;;;2.16;73.44;102515.44;4360414;32;9640;-76
2020/12/04 03:48:40;;;;;;;;;17.33;17.00;;;;;2.41;72.93;102520.75;4359552;32;8917;-77
2020/12/04 03:51:36;;;;;;;;;37.67;33.67;;;;;2.08;73.82;102521.22;4359965;32;9122;-77
2020/12/04 03:54:32;;;;;;;;;37.33;32.67;;;;;2.26;73.60;102519.50;4370033;32;8895;-76
2020/12/04 03:56:59;;;;;;;;;29.67;29.33;;;;;2.42;72.55;102510.66;4375155;32;8956;-76
2020/12/04 03:59:55;;;;;;;;;36.67;34.67;;;;;2.68;71.82;102509.44;4374051;32;8911;-76
2020/12/04 04:02:50;;;;;;;;;30.33;24.33;;;;;2.64;71.38;102503.63;4369962;32;8971;-76
2020/12/04 04:05:31;;;;;;;;;36.67;36.67;;;;;2.71;71.47;102503.53;4362902;32;8916;-76
2020/12/04 04:08:26;;;;;;;;;28.67;27.00;;;;;2.85;71.05;102499.53;4370995;32;9031;-76
2020/12/04 04:11:23;;;;;;;;;37.33;31.33;;;;;2.83;70.91;102507.09;4374164;32;8965;-76
2020/12/04 04:13:50;;;;;;;;;33.33;31.67;;;;;2.94;70.69;102502.72;4348951;32;8956;-77
2020/12/04 04:16:18;;;;;;;;;30.33;30.33;;;;;2.94;70.61;102508.19;4374936;32;8910;-76
2020/12/04 04:18:45;;;;;;;;;34.67;31.67;;;;;2.97;70.29;102505.81;4375098;32;8995;-77
2020/12/04 04:21:13;;;;;;;;;33.33;30.33;;;;;2.87;70.65;102502.84;4375351;32;8906;-76
2020/12/04 04:24:10;;;;;;;;;34.67;33.00;;;;;2.56;71.15;102503.97;4373751;32;8904;-77
2020/12/04 04:27:06;;;;;;;;;44.00;35.33;;;;;2.70;70.99;102510.88;4366338;32;9120;-77
2020/12/04 04:29:41;;;;;;;;;34.67;33.33;;;;;2.22;72.15;102519.13;4360170;32;8946;-76
2020/12/04 04:32:08;;;;;;;;;29.67;27.67;;;;;2.53;71.50;102525.41;4346449;33;8916;-76
2020/12/04 04:35:05;;;;;;;;;28.33;28.33;;;;;2.39;71.68;102524.81;4362014;32;8915;-75
2020/12/04 04:37:56;;;;;;;;;23.67;21.67;;;;;2.47;70.90;102519.00;4374365;32;8890;-75
2020/12/04 04:40:41;;;;;;;;;27.67;23.67;;;;;2.59;70.72;102517.13;4375872;32;8952;-77
2020/12/04 04:43:37;;;;;;;;;30.33;29.00;;;;;2.53;71.01;102525.41;4372964;32;8977;-76
2020/12/04 04:47:00;;;;;;;;;38.33;38.00;;;;;2.43;71.30;102523.25;4358819;32;8937;-76
2020/12/04 04:49:58;;;;;;;;;17.67;16.67;;;;;2.72;70.65;102516.94;4359731;32;9006;-78
2020/12/04 04:52:30;;;;;;;;;31.00;27.00;;;;;2.67;70.50;102519.53;4359311;32;8923;-75
2020/12/04 04:55:27;;;;;;;;;33.00;31.00;;;;;2.62;70.62;102513.97;4348545;32;8948;-76
2020/12/04 04:57:59;;;;;;;;;34.33;29.33;;;;;2.58;70.15;102520.09;4359397;32;9692;-76
2020/12/04 05:00:55;;;;;;;;;32.00;31.33;;;;;2.70;69.48;102518.25;4342721;32;8947;-76
2020/12/04 05:03:58;;;;;;;;;31.67;31.67;;;;;2.80;69.54;102518.50;4362182;32;8913;-76
2020/12/04 05:06:54;;;;;;;;;26.00;24.67;;;;;2.84;69.24;102524.31;4365829;32;8903;-75
2020/12/04 05:09:50;;;;;;;;;45.33;40.67;;;;;2.86;69.01;102528.50;4373005;32;8973;-77
2020/12/04 05:13:00;;;;;;;;;30.33;30.33;;;;;2.96;68.96;102527.91;4370281;32;8913;-77
2020/12/04 05:15:56;;;;;;;;;40.67;37.33;;;;;2.68;68.97;102528.56;4361679;32;8884;-76
2020/12/04 05:18:52;;;;;;;;;39.33;36.67;;;;;2.76;69.08;102541.87;4360924;32;8947;-77
2020/12/04 05:21:48;;;;;;;;;40.33;36.33;;;;;2.87;68.83;102532.91;4362607;32;9607;-77
2020/12/04 05:24:45;;;;;;;;;31.67;29.33;;;;;2.69;69.16;102539.28;4372917;32;8919;-77
2020/12/04 05:27:40;;;;;;;;;30.67;30.67;;;;;2.39;70.20;102535.72;4350237;32;8910;-75
2020/12/04 05:30:08;;;;;;;;;35.00;32.67;;;;;2.27;70.47;102548.47;4349354;32;9631;-77
2020/12/04 05:33:07;;;;;;;;;30.00;27.67;;;;;2.10;70.56;102557.31;4349133;32;9601;-76
2020/12/04 05:36:03;;;;;;;;;28.67;24.00;;;;;2.34;69.97;102560.16;4348494;33;8901;-76
2020/12/04 05:38:59;;;;;;;;;32.67;30.33;;;;;2.40;69.18;102559.25;4357985;33;8906;-76
2020/12/04 05:41:55;;;;;;;;;31.33;31.33;;;;;2.26;69.81;102561.31;4358072;32;8925;-76
2020/12/04 05:44:54;;;;;;;;;36.67;35.00;;;;;2.53;69.34;102561.78;4348814;33;8959;-76
2020/12/04 05:47:48;;;;;;;;;41.00;32.33;;;;;2.56;68.93;102561.31;4339010;33;8920;-76
2020/12/04 05:50:17;;;;;;;;;40.33;39.67;;;;;2.72;68.52;102574.31;4358990;32;8927;-76
2020/12/04 05:52:53;;;;;;;;;28.67;27.00;;;;;2.62;68.89;102576.78;4358566;32;8998;-77
2020/12/04 05:55:53;;;;;;;;;30.67;29.67;;;;;2.62;68.75;102581.44;4347533;32;9575;-77
2020/12/04 05:58:29;;;;;;;;;31.33;28.33;;;;;2.61;68.67;102583.31;4359150;32;8955;-77
2020/12/04 06:01:25;;;;;;;;;32.00;32.00;;;;;2.70;68.74;102584.66;4357573;33;8979;-77
2020/12/04 06:04:21;;;;;;;;;27.00;27.00;;;;;2.57;68.81;102587.56;4347810;33;8906;-77
2020/12/04 06:07:24;;;;;;;;;43.33;42.00;;;;;2.86;67.96;102596.84;4357746;33;8952;-77
2020/12/04 06:10:20;;;;;;;;;40.33;40.00;;;;;2.76;68.45;102591.06;4348486;33;8894;-76
2020/12/04 06:12:53;;;;;;;;;43.33;39.00;;;;;2.94;68.08;102590.19;4358481;32;8927;-76
2020/12/04 06:15:49;;;;;;;;;44.00;41.00;;;;;2.93;68.15;102586.63;4347465;33;8921;-76
2020/12/04 06:18:44;;;;;;;;;34.00;33.00;;;;;2.96;67.85;102583.41;4348159;33;8909;-77
2020/12/04 06:21:12;;;;;;;;;34.67;32.00;;;;;2.75;68.23;102582.03;4345391;33;8900;-77
2020/12/04 06:24:07;;;;;;;;;32.00;32.00;;;;;2.65;68.55;102575.47;4357097;32;9071;-77
2020/12/04 06:27:03;;;;;;;;;39.00;34.33;;;;;2.71;68.43;102585.50;4357526;32;9559;-78
2020/12/04 06:30:00;;;;;;;;;24.67;24.67;;;;;2.85;67.56;102603.37;4347195;33;8967;-77
2020/12/04 06:32:56;;;;;;;;;30.00;27.67;;;;;2.74;67.70;102595.94;4356979;32;8932;-75
2020/12/04 06:35:56;;;;;;;;;26.33;25.67;;;;;2.81;67.61;102602.16;4349024;32;8909;-77
2020/12/04 06:38:41;;;;;;;;;33.00;33.00;;;;;2.57;67.88;102606.69;4360678;32;8950;-77
2020/12/04 06:41:45;;;;;;;;;37.33;37.33;;;;;2.65;67.72;102605.53;4371748;32;8973;-78
2020/12/04 06:44:50;;;;;;;;;39.00;36.00;;;;;2.37;68.75;102606.94;4371893;32;8945;-77
2020/12/04 06:48:12;;;;;;;;;39.00;38.00;;;;;2.73;68.04;102605.22;4362096;32;8907;-77
2020/12/04 06:51:07;;;;;;;;;10.67;10.33;;;;;2.75;67.93;102603.06;4371048;32;8900;-77
2020/12/04 06:54:07;;;;;;;;;35.67;32.33;;;;;2.69;67.62;102609.50;4356952;33;9024;-76
2020/12/04 06:56:53;;;;;;;;;40.00;34.33;;;;;2.82;67.13;102613.91;4346763;33;8923;-77
2020/12/04 06:59:28;;;;;;;;;35.67;32.33;;;;;2.90;66.90;102608.94;4357606;32;9014;-77
2020/12/04 07:02:26;;;;;;;;;45.00;40.33;;;;;2.59;67.45;102603.72;4357162;32;8961;-76
2020/12/04 07:05:26;;;;;;;;;41.67;36.00;;;;;2.56;67.83;102605.03;4357368;33;8925;-76
2020/12/04 07:08:22;;;;;;;;;38.00;35.33;;;;;2.48;68.21;102614.38;4347259;32;9023;-77
2020/12/04 07:10:53;;;;;;;;;30.00;30.00;;;;;2.71;67.51;102607.34;4364522;32;8943;-77
2020/12/04 07:13:22;;;;;;;;;31.33;31.33;;;;;2.82;67.48;102598.34;4372870;32;8955;-77
2020/12/04 07:16:18;;;;;;;;;36.00;30.00;;;;;2.75;67.27;102603.06;4361852;32;9626;-76
2020/12/04 07:19:15;;;;;;;;;24.00;23.33;;;;;3.02;66.45;102612.56;4362999;32;8897;-77
2020/12/04 07:22:11;;;;;;;;;36.67;33.00;;;;;3.08;66.22;102615.44;4355327;32;9016;-76
2020/12/04 07:25:07;;;;;;;;;33.00;27.00;;;;;3.12;65.58;102613.88;4346845;33;9082;-76
2020/12/04 07:28:03;;;;;;;;;37.67;33.33;;;;;3.18;65.68;102612.97;4356870;32;8922;-76
2020/12/04 07:31:00;;;;;;;;;31.00;30.33;;;;;3.22;65.35;102616.87;4356738;33;8925;-77
2020/12/04 07:34:00;;;;;;;;;26.33;26.33;;;;;3.08;65.42;102613.53;4357954;32;9002;-77
2020/12/04 07:36:56;;;;;;;;;38.33;37.00;;;;;3.28;65.31;102621.41;4360235;32;8960;-77
2020/12/04 07:39:37;;;;;;;;;33.67;33.00;;;;;3.35;64.89;102627.59;4360394;32;8962;-77
2020/12/04 07:42:27;;;;;;;;;29.67;27.33;;;;;3.45;64.48;102616.09;4360376;32;8955;-76
2020/12/04 07:45:23;;;;;;;;;32.67;31.33;;;;;3.11;65.07;102613.06;4360714;32;8905;-76
2020/12/04 07:48:18;;;;;;;;;38.67;34.00;;;;;3.27;64.69;102622.47;4359436;33;9602;-77
2020/12/04 07:51:14;;;;;;;;;31.33;30.33;;;;;2.96;65.49;102618.97;4359503;32;8906;-76
2020/12/04 07:54:23;;;;;;;;;26.33;26.00;;;;;2.90;65.71;102614.41;4363274;32;8899;-76
2020/12/04 07:57:27;;;;;;;;;25.67;22.33;;;;;3.11;64.96;102620.44;4374655;32;8920;-76
2020/12/04 08:00:23;;;;;;;;;35.67;34.33;;;;;2.98;65.10;102615.97;4364791;32;8903;-76
2020/12/04 08:03:20;;;;;;;;;30.67;30.67;;;;;2.89;65.28;102611.91;4373876;32;8919;-78
2020/12/04 08:06:22;;;;;;;;;35.00;33.67;;;;;2.99;64.90;102614.91;4374002;32;9556;-76
2020/12/04 08:09:19;;;;;;;;;31.00;31.00;;;;;3.06;64.78;102627.41;4373566;32;8915;-77
2020/12/04 08:12:22;;;;;;;;;34.00;32.00;;;;;3.29;63.70;102626.63;4349610;32;8934;-77
2020/12/04 08:15:19;;;;;;;;;27.00;27.00;;;;;3.34;63.22;102629.50;4372846;32;8892;-76
2020/12/04 08:17:46;;;;;;;;;27.67;25.67;;;;;3.42;62.67;102619.28;4361590;32;12383;-77
2020/12/04 08:20:18;;;;;;;;;22.67;22.67;;;;;3.74;61.58;102614.31;4361243;32;12423;-76
2020/12/04 08:23:20;;;;;;;;;40.67;36.33;;;;;3.79;61.52;102614.44;4364529;32;12326;-77
2020/12/04 08:26:16;;;;;;;;;24.67;24.67;;;;;3.18;62.37;102615.69;4349117;33;8975;-78
2020/12/04 08:29:12;;;;;;;;;32.33;28.00;;;;;2.68;63.60;102616.81;4358820;32;12684;-78
2020/12/04 08:32:19;;;;;;;;;37.67;30.33;;;;;2.62;63.98;102619.66;4354004;32;12402;-76
2020/12/04 08:35:20;;;;;;;;;33.33;28.33;;;;;2.80;63.77;102605.94;4359481;32;12368;-76
2020/12/04 08:38:19;;;;;;;;;34.67;30.67;;;;;2.59;64.26;102617.38;4358581;33;8917;-77
2020/12/04 08:41:15;;;;;;;;;29.00;27.00;;;;;3.09;63.84;102615.19;4349144;33;9071;-76
2020/12/04 08:43:58;;;;;;;;;28.00;28.00;;;;;3.49;63.06;102622.75;4374583;32;12376;-75
2020/12/04 08:46:47;;;;;;;;;25.00;22.75;;;;;3.75;61.26;102627.75;4374098;32;12987;-79
2020/12/04 08:49:29;;;;;;;;;25.00;25.00;;;;;3.55;61.48;102619.09;4374262;32;12335;-79
2020/12/04 08:52:35;;;;;;;;;28.75;25.50;;;;;3.61;61.57;102618.12;4373403;32;12343;-79
2020/12/04 08:55:22;;;;;;;;;25.00;24.67;;;;;3.63;61.56;102611.34;4374173;32;12352;-78
2020/12/04 08:57:52;;;;;;;;;32.25;27.25;;;;;3.97;60.92;102618.94;4374088;32;12979;-79
2020/12/04 09:00:51;;;;;;;;;33.67;30.67;;;;;3.92;60.32;102613.37;4373397;32;12422;-79
2020/12/04 09:03:20;;;;;;;;;26.33;25.00;;;;;3.98;60.50;102613.22;4373513;32;13005;-80
2020/12/04 09:06:20;;;;;;;;;29.00;26.75;;;;;3.89;60.37;102626.44;4373137;32;12331;-79
2020/12/04 09:09:16;;;;;;;;;29.00;29.00;;;;;3.85;60.36;102613.50;4363187;32;12423;-79
2020/12/04 09:12:11;;;;;;;;;33.00;32.33;;;;;3.62;61.16;102611.59;4373026;32;12489;-78
2020/12/04 09:15:09;;;;;;;;;24.67;24.67;;;;;3.83;60.49;102615.63;4373408;32;12384;-79
2020/12/04 09:18:05;;;;;;;;;27.00;26.00;;;;;3.92;60.66;102619.69;4363037;32;12382;-79
2020/12/04 09:20:34;;;;;;;;;36.33;35.67;;;;;3.83;60.89;102604.66;4360738;32;12345;-80
2020/12/04 09:23:03;;;;;;;;;33.00;30.67;;;;;3.80;61.53;102616.09;4348347;32;12354;-79
2020/12/04 09:25:33;;;;;;;;;29.33;29.33;;;;;3.79;61.19;102608.97;4348802;32;8878;-79
2020/12/04 09:28:28;;;;;;;;;35.33;32.33;;;;;3.61;61.33;102609.94;4373780;32;12509;-80
2020/12/04 09:31:18;;;;;;;;;29.33;28.33;;;;;3.76;61.28;102606.72;4360037;32;12392;-78
2020/12/04 09:34:15;;;;;;;;;29.00;27.33;;;;;3.45;62.28;102597.78;4372831;32;12355;-79
2020/12/04 09:37:23;;;;;;;;;26.50;24.75;;;;;3.62;62.11;102604.22;4372916;32;12378;-79
2020/12/04 09:40:19;;;;;;;;;33.67;31.67;;;;;3.69;61.62;102597.78;4373225;32;12329;-77
2020/12/04 09:42:47;;;;;;;;;32.00;30.00;;;;;3.52;62.68;102597.66;4373566;32;12393;-77
2020/12/04 09:45:29;;;;;;;;;25.00;24.75;;;;;3.40;62.95;102594.09;4369214;32;12306;-77
2020/12/04 09:48:25;;;;;;;;;27.33;27.33;;;;;3.85;62.07;102608.03;4363942;32;12350;-77
2020/12/04 09:51:15;;;;;;;;;28.00;28.00;;;;;3.80;61.96;102607.91;4355759;32;12364;-77
2020/12/04 09:54:13;;;;;;;;;29.25;26.75;;;;;4.00;61.48;102610.28;4369971;32;12405;-77
2020/12/04 09:57:12;;;;;;;;;27.00;27.00;;;;;4.03;60.87;102599.66;4372059;32;12424;-77
2020/12/04 10:00:10;;;;;;;;;39.67;34.33;;;;;4.04;60.98;102595.00;4348966;32;13084;-75
2020/12/04 10:02:51;;;;;;;;;32.50;32.50;;;;;4.27;60.86;102599.59;4370983;32;12312;-77
2020/12/04 10:05:57;;;;;;;;;43.50;42.00;;;;;4.23;60.56;102592.97;4371108;32;12377;-77
2020/12/04 10:08:54;;;;;;;;;32.75;32.75;;;;;4.28;60.90;102602.09;4369852;32;12347;-77
2020/12/04 10:11:53;;;;;;;;;28.50;28.50;;;;;4.21;60.67;102595.09;4347836;32;12451;-76
2020/12/04 10:14:34;;;;;;;;;36.50;32.25;;;;;4.26;60.90;102589.72;4370020;32;12334;-77
2020/12/04 10:17:50;;;;;;;;;22.00;21.00;;;;;3.78;61.82;102582.69;4371614;32;12401;-76
2020/12/04 10:20:47;;;;;;;;;28.33;28.00;;;;;3.27;62.78;102581.47;4367849;32;12322;-77
2020/12/04 10:23:14;;;;;;;;;33.00;28.67;;;;;3.84;62.11;102585.28;4372972;32;12396;-77
2020/12/04 10:26:10;;;;;;;;;59.00;51.33;;;;;3.87;61.90;102578.50;4372735;32;13132;-77
2020/12/04 10:29:07;;;;;;;;;31.67;30.33;;;;;3.62;62.88;102576.03;4373699;32;8900;-77
2020/12/04 10:31:36;;;;;;;;;29.50;28.75;;;;;3.43;63.27;102574.47;4371922;32;8949;-75
2020/12/04 10:34:04;;;;;;;;;29.00;28.00;;;;;3.34;63.42;102569.34;4372230;32;12362;-77
2020/12/04 10:36:35;;;;;;;;;22.75;22.75;;;;;3.76;62.73;102579.34;4345855;33;12388;-77
2020/12/04 10:39:37;;;;;;;;;29.50;29.50;;;;;3.79;62.02;102578.87;4357047;33;12362;-78
2020/12/04 10:42:34;;;;;;;;;29.00;26.75;;;;;3.72;62.82;102576.25;4357671;32;12364;-75
2020/12/04 10:45:29;;;;;;;;;28.00;24.33;;;;;3.91;61.86;102574.22;4356085;32;12406;-75
2020/12/04 10:48:30;;;;;;;;;41.00;39.33;;;;;3.91;61.70;102571.47;4356821;33;12358;-75
2020/12/04 10:51:07;;;;;;;;;30.67;30.67;;;;;3.35;63.14;102573.72;4345781;33;8936;-77
2020/12/04 10:53:34;;;;;;;;;26.50;22.25;;;;;3.60;63.17;102576.25;4358239;32;8892;-78
2020/12/04 10:56:10;;;;;;;;;26.33;26.33;;;;;3.71;62.44;102571.03;4365088;32;12410;-79
2020/12/04 10:59:07;;;;;;;;;32.67;31.00;;;;;3.55;62.91;102570.66;4364412;32;13132;-77
2020/12/04 11:02:20;;;;;;;;;24.67;24.67;;;;;3.53;63.50;102571.97;4370792;32;12451;-76
2020/12/04 11:08:30;;;;;;;;;22.75;22.00;;;;;3.88;62.70;102570.03;4357235;32;12352;-77
2020/12/04 11:10:57;;;;;;;;;30.33;30.33;;;;;3.63;63.10;102569.47;4361056;32;12433;-77
2020/12/04 11:13:40;;;;;;;;;36.33;36.00;;;;;3.61;62.77;102572.44;4347288;33;12363;-76
2020/12/04 11:16:08;;;;;;;;;32.00;29.00;;;;;3.32;64.16;102571.47;4361647;32;12439;-77
2020/12/04 11:18:35;;;;;;;;;32.00;29.67;;;;;3.52;63.42;102564.81;4347521;32;12340;-76
2020/12/04 11:21:06;;;;;;;;;73.00;59.00;;;;;3.11;64.83;102561.09;4362472;32;8958;-78
2020/12/04 11:24:02;;;;;;;;;36.67;34.33;;;;;3.32;64.92;102562.44;4359525;32;9628;-77
2020/12/04 11:26:33;;;;;;;;;31.67;30.33;;;;;3.16;64.91;102555.78;4363007;32;8929;-76
2020/12/04 11:29:15;;;;;;;;;20.33;20.00;;;;;2.98;64.98;102553.13;4350912;32;8902;-76
2020/12/04 11:32:12;;;;;;;;;47.00;42.00;;;;;2.87;65.70;102559.41;4371313;32;8931;-80
2020/12/04 11:35:10;;;;;;;;;28.67;28.67;;;;;3.14;65.49;102560.62;4361803;32;9017;-80
2020/12/04 11:37:57;;;;;;;;;27.00;25.67;;;;;3.40;64.09;102562.09;4360471;32;8960;-78
2020/12/04 11:40:26;;;;;;;;;41.33;38.33;;;;;3.33;64.33;102555.91;4375098;32;8886;-80
2020/12/04 11:42:53;;;;;;;;;47.00;41.67;;;;;3.56;64.29;102569.59;4368227;32;8886;-80
2020/12/04 11:45:22;;;;;;;;;47.00;44.00;;;;;3.40;64.55;102573.03;4373577;32;9326;-79
2020/12/04 11:47:57;;;;;;;;;34.00;31.67;;;;;3.35;64.67;102576.47;4347974;32;8896;-81
2020/12/04 11:50:53;;;;;;;;;24.00;23.67;;;;;3.06;65.39;102583.66;4356528;32;12346;-79
2020/12/04 11:53:22;;;;;;;;;38.33;37.33;;;;;3.03;65.30;102575.13;4349599;32;12397;-80
2020/12/04 11:56:04;;;;;;;;;37.33;35.67;;;;;2.85;66.01;102570.56;4373704;32;8890;-78
2020/12/04 11:58:59;;;;;;;;;42.00;38.33;;;;;2.69;66.43;102572.06;4350214;32;8955;-78
2020/12/04 12:01:59;;;;;;;;;43.00;38.00;;;;;2.78;66.26;102564.38;4349066;33;9015;-77
2020/12/04 12:04:58;;;;;;;;;43.00;38.00;;;;;2.68;66.66;102570.38;4359426;32;8885;-78
2020/12/04 12:07:40;;;;;;;;;38.00;35.00;;;;;2.77;66.53;102568.19;4348720;33;8904;-79
2020/12/04 12:10:18;;;;;;;;;49.33;43.00;;;;;2.81;66.71;102574.81;4360456;32;8904;-79
2020/12/04 12:12:51;;;;;;;;;36.67;36.67;;;;;2.79;66.58;102569.59;4362745;32;8952;-78
2020/12/04 12:15:19;;;;;;;;;32.33;27.33;;;;;3.05;66.13;102572.97;4349375;32;8882;-79
2020/12/04 12:18:07;;;;;;;;;35.33;35.33;;;;;3.22;65.48;102570.38;4367518;32;9556;-79
2020/12/04 12:21:04;;;;;;;;;28.00;28.00;;;;;3.30;65.39;102578.28;4358981;32;8941;-79
2020/12/04 12:24:02;;;;;;;;;34.67;34.67;;;;;3.36;65.24;102577.31;4349013;32;8917;-79
2020/12/04 12:26:40;;;;;;;;;53.67;46.00;;;;;3.46;65.13;102593.97;4350166;32;8887;-79
2020/12/04 12:29:36;;;;;;;;;33.67;33.67;;;;;3.38;65.22;102575.19;4373871;32;8907;-79
2020/12/04 12:32:32;;;;;;;;;50.00;46.00;;;;;3.06;65.64;102586.41;4359472;32;8977;-80
2020/12/04 12:35:28;;;;;;;;;63.67;50.67;;;;;3.30;65.46;102572.81;4358547;33;8944;-78
2020/12/04 12:38:10;;;;;;;;;30.00;28.00;;;;;2.94;65.99;102582.00;4358515;32;9026;-79
2020/12/04 12:41:06;;;;;;;;;33.67;30.67;;;;;2.62;67.10;102571.31;4358981;32;8963;-78
2020/12/04 12:43:35;;;;;;;;;33.00;30.67;;;;;2.78;66.65;102581.59;4366062;32;8942;-78
2020/12/04 12:46:05;;;;;;;;;34.67;34.67;;;;;2.94;66.56;102582.00;4368073;32;8878;-78
2020/12/04 12:48:38;;;;;;;;;34.00;34.00;;;;;2.97;66.24;102582.34;4353449;32;8944;-78
2020/12/04 12:51:33;;;;;;;;;46.00;32.00;;;;;2.62;67.41;102595.09;4348956;33;8948;-79
2020/12/04 12:54:20;;;;;;;;;14.67;6.33;;;;;2.74;67.17;102591.31;4359979;32;8909;-79
2020/12/04 12:57:05;;;;;;;;;33.33;32.67;;;;;2.65;67.09;102580.94;4358567;32;8900;-78
2020/12/04 12:59:33;;;;;;;;;36.33;31.67;;;;;2.77;67.05;102581.84;4346818;33;8935;-78
2020/12/04 13:02:28;;;;;;;;;47.67;40.67;;;;;2.78;67.32;102586.22;4359894;32;8899;-78
2020/12/04 13:05:31;;;;;;;;;32.00;31.00;;;;;2.72;67.46;102587.16;4374669;32;8918;-78
2020/12/04 13:08:09;;;;;;;;;34.00;27.00;;;;;2.49;68.17;102586.00;4373219;32;8914;-77
2020/12/04 13:10:38;;;;;;;;;46.00;43.00;;;;;2.18;68.65;102586.19;4369199;32;8930;-79